Time;durP1;ratioP1;P1;durP2;ratioP2;P2;SDS_P1;SDS_P2;PMS_P1;PMS_P2;Temp;Humidity;BMP_temperature;BMP_pressure;BME280_temperature;BME280_humidity;BME280_pressure;Samples;Min_cycle;Max_cycle;Signal;HPM_P1;HPM_P2
2022/04/07 00:08:43;;;;;;;7.70;5.40;;;;;;;7.90;70.50;97694.34;447643;1269;142171;-55
2022/04/07 00:18:49;;;;;;;7.10;5.40;;;;;;;7.89;70.26;97696.84;446815;1267;142519;-54
2022/04/07 00:28:54;;;;;;;6.40;5.30;;;;;;;7.89;70.34;97692.13;446532;1268;142631;-52
2022/04/07 00:39:01;;;;;;;8.10;6.50;;;;;;;7.92;70.25;97684.23;439767;1268;145201;-54
2022/04/07 00:49:07;;;;;;;7.70;5.20;;;;;;;7.85;70.15;97665.63;435185;1270;144149;-55
2022/04/07 00:59:17;;;;;;;7.50;5.20;;;;;;;7.79;70.30;97655.55;447640;1269;142450;-54
2022/04/07 01:09:23;;;;;;;10.60;6.10;;;;;;;7.74;70.24;97649.70;447585;1269;144080;-53
2022/04/07 01:19:29;;;;;;;7.90;5.70;;;;;;;7.72;70.35;97638.15;446777;1269;143492;-52
2022/04/07 01:29:35;;;;;;;7.40;5.00;;;;;;;7.75;70.29;97639.52;447708;1268;143332;-53
2022/04/07 01:39:42;;;;;;;6.90;5.10;;;;;;;7.80;70.46;97634.85;446897;1269;142447;-52
2022/04/07 01:49:53;;;;;;;6.40;5.80;;;;;;;7.68;70.28;97632.05;437968;1269;194974;-54
2022/04/07 02:00:00;;;;;;;7.80;6.50;;;;;;;7.45;70.49;97625.95;447509;1269;141361;-54
2022/04/07 02:10:07;;;;;;;9.90;7.60;;;;;;;7.22;70.71;97619.77;446886;1269;143594;-54
2022/04/07 02:20:14;;;;;;;8.50;6.80;;;;;;;6.95;71.00;97607.53;447505;1270;144379;-53
2022/04/07 02:30:19;;;;;;;11.10;9.60;;;;;;;6.68;71.47;97597.49;447400;1269;142077;-54
2022/04/07 02:40:25;;;;;;;8.30;7.50;;;;;;;6.46;71.90;97587.38;446814;1269;142341;-50
2022/04/07 02:50:31;;;;;;;9.00;8.00;;;;;;;6.29;72.19;97585.08;447546;1269;143223;-52
2022/04/07 03:00:37;;;;;;;10.90;8.50;;;;;;;6.06;72.76;97583.84;446989;1270;142129;-52
2022/04/07 03:10:43;;;;;;;7.90;7.20;;;;;;;5.90;73.12;97580.73;447774;1270;142850;-52
2022/04/07 03:20:49;;;;;;;12.20;8.30;;;;;;;5.83;73.48;97572.77;447739;1269;144900;-52
2022/04/07 03:30:55;;;;;;;9.50;8.00;;;;;;;5.72;73.74;97569.91;438356;1269;162599;-51
2022/04/07 03:41:01;;;;;;;9.40;7.60;;;;;;;5.56;74.07;97572.05;433886;1270;142706;-53
2022/04/07 03:51:07;;;;;;;10.20;7.50;;;;;;;5.39;74.41;97572.77;447719;1270;142460;-54
2022/04/07 04:01:13;;;;;;;10.10;8.00;;;;;;;5.43;75.01;97571.59;446685;1270;145589;-53
2022/04/07 04:11:19;;;;;;;10.20;8.40;;;;;;;5.72;75.28;97564.86;438735;1270;141080;-53
2022/04/07 04:21:25;;;;;;;9.40;7.30;;;;;;;5.92;74.84;97562.99;447616;1270;141460;-51
2022/04/07 04:31:31;;;;;;;8.80;7.10;;;;;;;5.97;74.80;97557.45;447008;1270;141370;-52
2022/04/07 04:41:37;;;;;;;12.20;7.90;;;;;;;6.16;74.74;97551.99;441748;1269;144692;-51
2022/04/07 04:51:43;;;;;;;11.90;7.40;;;;;;;6.37;74.54;97553.16;446810;1269;141910;-56
2022/04/07 05:01:49;;;;;;;11.40;9.60;;;;;;;6.77;74.32;97548.42;447694;1269;142036;-55
2022/04/07 05:11:56;;;;;;;18.30;13.10;;;;;;;7.16;73.70;97546.45;447729;1270;141954;-54
2022/04/07 05:22:02;;;;;;;16.10;10.70;;;;;;;7.71;73.42;97552.66;446886;1269;142091;-50
2022/04/07 05:32:09;;;;;;;15.50;10.60;;;;;;;8.44;72.62;97553.66;447605;1270;142750;-52
2022/04/07 05:42:15;;;;;;;9.30;7.90;;;;;;;9.50;70.97;97546.87;437842;1269;141664;-53
2022/04/07 05:52:21;;;;;;;12.90;8.50;;;;;;;10.77;70.08;97539.73;446298;1270;140940;-54
2022/04/07 06:02:27;;;;;;;18.50;16.50;;;;;;;14.65;66.42;97530.81;447424;1271;141917;-55
2022/04/07 06:12:34;;;;;;;13.60;9.30;;;;;;;19.78;61.17;97520.08;447394;1271;141401;-56
2022/04/07 06:22:41;;;;;;;6.20;5.60;;;;;;;23.79;52.09;97507.27;447397;1270;152569;-54
2022/04/07 06:32:48;;;;;;;7.30;5.60;;;;;;;19.53;50.05;97514.38;446858;1271;141437;-54
2022/04/07 06:42:55;;;;;;;10.80;5.60;;;;;;;18.09;51.18;97509.08;446203;1271;140988;-55
2022/04/07 06:53:03;;;;;;;7.10;4.90;;;;;;;21.01;49.23;97498.09;447248;1271;140957;-57
2022/04/07 07:03:09;;;;;;;9.50;4.80;;;;;;;24.05;46.49;97484.03;447504;1271;143074;-57
2022/04/07 07:13:16;;;;;;;5.20;4.50;;;;;;;30.03;41.77;97479.10;446630;1271;142982;-58
2022/04/07 07:23:29;;;;;;;8.20;4.60;;;;;;;34.01;36.37;97466.36;447521;1270;140737;-65
2022/04/07 07:33:35;;;;;;;5.70;4.10;;;;;;;34.35;32.41;97454.91;446640;1270;141318;-64
2022/04/07 07:43:41;;;;;;;5.40;4.30;;;;;;;32.66;31.01;97445.75;447471;1270;142743;-63
2022/04/07 07:53:47;;;;;;;6.60;4.00;;;;;;;31.43;29.53;97435.40;447634;1269;142830;-62
2022/04/07 08:03:53;;;;;;;2.70;2.30;;;;;;;31.94;29.06;97426.94;446989;1269;141536;-62
2022/04/07 08:13:59;;;;;;;4.70;2.20;;;;;;;32.16;27.25;97420.42;447741;1269;141025;-58
2022/04/07 08:24:06;;;;;;;4.40;2.10;;;;;;;33.69;25.98;97418.25;447768;1269;141383;-62
2022/04/07 08:34:12;;;;;;;2.70;2.40;;;;;;;35.36;24.28;97407.88;446923;1269;141570;-61
2022/04/07 08:44:19;;;;;;;2.50;1.80;;;;;;;31.38;24.58;97396.17;447639;1269;141619;-60
2022/04/07 08:54:25;;;;;;;2.60;1.60;;;;;;;24.42;28.09;97388.21;447628;1269;141252;-65
2022/04/07 09:04:37;;;;;;;4.70;2.30;;;;;;;21.47;31.05;97378.91;434655;1270;140930;-60
2022/04/07 09:14:45;;;;;;;2.80;2.30;;;;;;;19.88;32.97;97385.92;432650;1270;140738;-61
2022/04/07 09:24:51;;;;;;;2.10;1.90;;;;;;;18.35;34.84;97379.70;434080;1269;140624;-61
2022/04/07 09:34:59;;;;;;;3.70;2.40;;;;;;;17.70;36.78;97367.10;447722;1269;141287;-67
2022/04/07 09:45:07;;;;;;;;;;;;;;;18.13;37.11;97347.67;447734;1269;140713;-65
2022/04/07 09:55:14;;;;;;;2.30;1.80;;;;;;;17.68;37.77;97333.41;437462;1269;127783;-67
2022/04/07 10:05:22;;;;;;;2.70;1.50;;;;;;;17.48;38.38;97326.58;439881;1270;141328;-62
2022/04/07 10:15:28;;;;;;;5.40;2.10;;;;;;;17.66;38.56;97295.33;439640;1269;195430;-65
2022/04/07 10:25:39;;;;;;;3.40;2.30;;;;;;;17.62;38.91;97276.05;441339;1270;141065;-61
2022/04/07 10:35:45;;;;;;;1.20;1.10;;;;;;;17.40;38.84;97248.20;432915;1270;140808;-61
2022/04/07 10:45:53;;;;;;;1.40;0.70;;;;;;;17.37;39.06;97232.68;430559;1270;142357;-60
2022/04/07 10:56:06;;;;;;;2.50;1.00;;;;;;;17.52;38.64;97225.27;447824;1269;140607;-64
2022/04/07 11:06:22;;;;;;;1.70;0.80;;;;;;;17.39;38.32;97221.17;447769;1269;141253;-60
2022/04/07 11:16:36;;;;;;;2.70;1.20;;;;;;;17.06;38.79;97203.67;447113;1269;141201;-59
2022/04/07 11:26:42;;;;;;;1.40;1.00;;;;;;;17.33;39.60;97195.58;447605;1269;141786;-62
2022/04/07 11:36:49;;;;;;;2.00;0.90;;;;;;;17.47;40.05;97179.65;446817;1270;141297;-62
2022/04/07 11:46:56;;;;;;;1.90;1.50;;;;;;;17.40;40.01;97162.98;447707;1270;141567;-62
2022/04/07 11:57:02;;;;;;;1.00;0.90;;;;;;;17.26;40.25;97152.11;442794;1270;140977;-66
2022/04/07 12:07:08;;;;;;;1.60;0.80;;;;;;;17.23;40.35;97134.16;430007;1270;367779;-62
2022/04/07 12:17:14;;;;;;;2.30;0.80;;;;;;;17.19;40.33;97121.15;439070;1269;142174;-67
2022/04/07 12:27:31;;;;;;;1.10;1.00;;;;;;;16.89;40.36;97097.71;438273;1267;140931;-77
2022/04/07 12:37:39;;;;;;;1.80;0.90;;;;;;;16.54;40.64;97098.02;447857;1268;141554;-71
2022/04/07 12:48:03;;;;;;;1.60;0.90;;;;;;;16.63;40.91;97077.59;440573;1269;140551;-59
2022/04/07 12:58:33;;;;;;;1.40;0.70;;;;;;;17.03;40.59;97057.16;447026;1269;141076;-59
2022/04/07 13:08:39;;;;;;;1.30;1.20;;;;;;;17.08;40.46;97035.67;447706;1268;140843;-58
2022/04/07 13:18:45;;;;;;;1.20;1.00;;;;;;;17.35;40.11;97018.17;447103;1269;140874;-58
2022/04/07 13:28:52;;;;;;;1.80;1.20;;;;;;;17.04;40.32;96983.13;447715;1269;141730;-58
2022/04/07 13:38:58;;;;;;;0.90;0.80;;;;;;;16.55;40.38;96957.09;447734;1269;140858;-59
2022/04/07 13:49:04;;;;;;;1.50;0.90;;;;;;;16.56;40.40;96939.06;447079;1268;141883;-58
2022/04/07 13:59:10;;;;;;;2.10;0.80;;;;;;;16.76;39.91;96912.42;447795;1270;141328;-59
2022/04/07 14:09:16;;;;;;;1.90;0.60;;;;;;;16.72;39.76;96874.80;447782;1268;141225;-59
2022/04/07 14:19:23;;;;;;;1.50;1.00;;;;;;;16.61;39.71;96856.74;447130;1269;141506;-58
2022/04/07 14:29:29;;;;;;;1.60;0.80;;;;;;;16.92;39.35;96846.48;447829;1267;142176;-59
2022/04/07 14:39:35;;;;;;;1.20;1.10;;;;;;;16.87;39.11;96836.39;447011;1269;141230;-58
2022/04/07 14:49:41;;;;;;;1.00;0.70;;;;;;;16.61;39.31;96824.59;433951;1270;140588;-58
2022/04/07 14:59:50;;;;;;;1.20;1.00;;;;;;;16.32;39.79;96817.14;430464;1270;141175;-58
2022/04/07 15:09:56;;;;;;;1.30;1.10;;;;;;;16.07;40.29;96805.36;447030;1269;194830;-59
2022/04/07 15:20:03;;;;;;;1.20;0.80;;;;;;;16.16;39.93;96783.75;447594;1270;141413;-59
2022/04/07 15:30:12;;;;;;;3.70;1.20;;;;;;;16.09;39.85;96751.50;432435;1270;141203;-61
2022/04/07 15:40:18;;;;;;;1.50;1.40;;;;;;;15.79;40.16;96727.32;447123;1268;141028;-59
2022/04/07 15:50:25;;;;;;;2.90;1.50;;;;;;;15.46;40.61;96710.87;447866;1269;141353;-59
2022/04/07 16:00:31;;;;;;;2.70;1.40;;;;;;;15.31;41.04;96693.88;444574;1270;141595;-59
2022/04/07 16:10:37;;;;;;;1.90;1.30;;;;;;;15.23;41.26;96680.67;442912;1270;141056;-58
2022/04/07 16:20:43;;;;;;;1.50;1.30;;;;;;;15.09;41.34;96667.52;447429;1270;140592;-58
2022/04/07 16:30:49;;;;;;;4.50;2.50;;;;;;;14.98;41.33;96659.44;446713;1269;142268;-59
2022/04/07 16:40:56;;;;;;;2.60;1.80;;;;;;;14.91;41.76;96645.27;447582;1269;141382;-59
2022/04/07 16:51:02;;;;;;;3.30;2.30;;;;;;;14.88;42.83;96640.19;447499;1270;140850;-58
2022/04/07 17:01:09;;;;;;;3.90;2.80;;;;;;;14.72;43.90;96639.95;446783;1268;142040;-60
2022/04/07 17:11:15;;;;;;;2.40;1.50;;;;;;;14.56;44.09;96625.77;447261;1270;140576;-59
2022/04/07 17:21:21;;;;;;;6.20;2.10;;;;;;;14.41;44.30;96600.52;447444;1270;141033;-58
2022/04/07 17:31:27;;;;;;;3.30;1.90;;;;;;;14.35;44.51;96597.25;444674;1270;141319;-62
2022/04/07 17:41:33;;;;;;;2.80;1.80;;;;;;;14.32;44.68;96591.04;447753;1270;141143;-59
2022/04/07 17:51:39;;;;;;;3.60;2.30;;;;;;;14.20;44.89;96594.88;446221;1270;141120;-59
2022/04/07 18:01:47;;;;;;;2.00;1.30;;;;;;;14.12;44.73;96591.54;447564;1270;141037;-60
2022/04/07 18:11:54;;;;;;;3.20;1.20;;;;;;;14.12;44.55;96589.79;447490;1270;142721;-60
2022/04/07 18:22:01;;;;;;;1.90;0.80;;;;;;;14.04;44.81;96580.98;446679;1270;142472;-60
2022/04/07 18:32:09;;;;;;;1.50;1.10;;;;;;;13.85;45.38;96566.23;447406;1270;141717;-63
2022/04/07 18:42:15;;;;;;;5.50;3.20;;;;;;;13.65;45.62;96556.45;430763;1270;141094;-58
2022/04/07 18:52:21;;;;;;;5.70;3.00;;;;;;;13.40;46.22;96546.28;429787;1269;141411;-59
2022/04/07 19:02:27;;;;;;;7.60;4.50;;;;;;;13.25;46.55;96530.39;438809;1269;140927;-59
2022/04/07 19:12:40;;;;;;;3.60;1.90;;;;;;;13.13;47.05;96518.40;447685;1270;141196;-58
2022/04/07 19:22:46;;;;;;;4.70;2.40;;;;;;;13.12;47.25;96529.15;444712;1270;142718;-58
2022/04/07 19:32:52;;;;;;;2.80;2.20;;;;;;;13.01;49.27;96550.17;439560;1270;140623;-58
2022/04/07 19:42:58;;;;;;;3.50;2.20;;;;;;;12.45;52.23;96543.96;446845;1270;141535;-61
2022/04/07 19:53:05;;;;;;;3.00;1.80;;;;;;;12.06;53.64;96550.65;447739;1269;141358;-59
2022/04/07 20:03:11;;;;;;;2.60;1.60;;;;;;;11.73;55.31;96572.45;447784;1270;140504;-60
2022/04/07 20:13:17;;;;;;;1.20;1.00;;;;;;;11.32;57.82;96633.61;446796;1270;142118;-60
2022/04/07 20:23:23;;;;;;;3.30;1.20;;;;;;;10.21;59.47;96669.59;447016;1270;142200;-59
2022/04/07 20:33:29;;;;;;;1.50;0.60;;;;;;;9.28;61.65;96654.19;434894;1271;141019;-57
2022/04/07 20:43:35;;;;;;;2.30;1.50;;;;;;;8.66;63.86;96665.30;447167;1270;141768;-59
2022/04/07 20:53:41;;;;;;;2.30;0.90;;;;;;;8.26;65.72;96675.73;446378;1269;142184;-59
2022/04/07 21:03:47;;;;;;;3.40;1.40;;;;;;;8.04;66.39;96623.19;430027;1270;141474;-58
2022/04/07 21:13:53;;;;;;;4.30;1.00;;;;;;;7.97;66.98;96636.96;433239;1270;141206;-58
2022/04/07 21:23:59;;;;;;;2.00;1.10;;;;;;;7.93;67.51;96637.93;447581;1270;141984;-58
2022/04/07 21:34:07;;;;;;;2.30;1.40;;;;;;;7.90;68.07;96666.41;446754;1269;141524;-58
2022/04/07 21:44:13;;;;;;;1.80;1.00;;;;;;;7.92;68.45;96663.80;442847;1270;141368;-59
2022/04/07 21:54:19;;;;;;;1.10;0.90;;;;;;;7.95;68.69;96590.43;434479;1270;141137;-57
2022/04/07 22:04:25;;;;;;;2.00;0.80;;;;;;;7.82;68.21;96604.69;440274;1269;142308;-58
2022/04/07 22:14:32;;;;;;;2.50;1.60;;;;;;;7.47;68.79;96633.93;432905;1270;141277;-57
2022/04/07 22:24:38;;;;;;;4.10;1.90;;;;;;;7.25;69.04;96677.99;446804;1269;141728;-58
2022/04/07 22:34:44;;;;;;;3.00;1.70;;;;;;;7.22;69.39;96699.42;447127;1269;141265;-61
2022/04/07 22:44:51;;;;;;;2.80;1.10;;;;;;;7.29;69.53;96680.84;441402;1269;141525;-59
2022/04/07 22:54:57;;;;;;;3.40;1.00;;;;;;;7.41;69.41;96661.40;446717;1269;142844;-59
2022/04/07 23:05:03;;;;;;;3.00;0.80;;;;;;;7.59;69.44;96676.21;447365;1270;141297;-58
2022/04/07 23:15:10;;;;;;;2.50;1.20;;;;;;;7.73;69.13;96703.89;447388;1271;142331;-59
2022/04/07 23:25:17;;;;;;;1.30;0.70;;;;;;;7.74;68.92;96700.23;442476;1270;141914;-59
2022/04/07 23:35:23;;;;;;;1.50;0.80;;;;;;;7.69;67.89;96698.60;442934;1270;141396;-59
2022/04/07 23:45:29;;;;;;;2.10;0.90;;;;;;;7.56;66.11;96685.09;447526;1270;141550;-59
2022/04/07 23:55:39;;;;;;;1.60;0.60;;;;;;;7.47;64.52;96691.36;436516;1270;141656;-59
